createdAt,value
2023-05-15T00:01:22.814Z,60.39
2023-05-15T00:03:49.271Z,59.46
2023-05-15T00:06:15.657Z,60.95
2023-05-15T00:08:42.151Z,59.57
2023-05-15T00:11:08.551Z,61.43
2023-05-15T00:13:36.362Z,60.68
2023-05-15T00:16:02.813Z,61.61
2023-05-15T00:18:29.248Z,61.11
2023-05-15T00:20:55.614Z,60.57
2023-05-15T00:23:22.099Z,61.49
2023-05-15T00:25:48.487Z,60.07
2023-05-15T00:28:14.860Z,59.43
2023-05-15T00:30:42.575Z,61.67
2023-05-15T00:33:08.933Z,61.23
2023-05-15T00:35:35.339Z,60.95
2023-05-15T00:38:01.900Z,61.39
2023-05-15T00:40:29.251Z,61.88
2023-05-15T00:42:56.526Z,61.41
2023-05-15T00:45:26.480Z,62.45
2023-05-15T00:47:55.240Z,61.91
2023-05-15T00:50:22.286Z,60.68
2023-05-15T00:52:48.861Z,60.15
2023-05-15T00:55:15.209Z,59.64
2023-05-15T00:57:43.399Z,61.43
2023-05-15T01:00:10.953Z,63.08
2023-05-15T01:02:37.490Z,61.09
2023-05-15T01:05:05.880Z,61.91
2023-05-15T01:07:37.233Z,62.33
2023-05-15T01:10:04.892Z,62.98
2023-05-15T01:12:32.489Z,63.11
2023-05-15T01:14:58.960Z,63.15
2023-05-15T01:17:25.377Z,63.13
2023-05-15T01:19:52.360Z,63.20
2023-05-15T01:22:59.276Z,63.38
2023-05-15T01:25:54.446Z,65.29
2023-05-15T01:28:30.499Z,63.73
2023-05-15T01:30:59.347Z,62.50
2023-05-15T01:33:29.503Z,62.78
2023-05-15T01:36:01.309Z,61.78
2023-05-15T01:38:33.399Z,62.10
2023-05-15T01:41:04.492Z,62.92
2023-05-15T01:43:35.684Z,63.06
2023-05-15T01:46:03.271Z,61.95
2023-05-15T01:48:33.215Z,61.88
2023-05-15T01:51:03.182Z,62.34
2023-05-15T01:53:31.668Z,62.87
2023-05-15T01:55:59.349Z,63.77
2023-05-15T01:58:26.770Z,63.79
2023-05-15T02:00:56.038Z,61.84
2023-05-15T02:03:23.603Z,63.38
2023-05-15T02:05:51.109Z,64.15
2023-05-15T02:08:17.595Z,63.22
2023-05-15T02:10:44.368Z,63.46
2023-05-15T02:13:13.453Z,63.76
2023-05-15T02:15:39.921Z,64.76
2023-05-15T02:18:07.652Z,64.27
2023-05-15T02:20:34.173Z,63.36
2023-05-15T02:23:00.581Z,62.48
2023-05-15T02:25:37.850Z,62.66
2023-05-15T02:28:12.320Z,63.01
2023-05-15T02:30:46.029Z,64.80
2023-05-15T02:33:14.956Z,64.10
2023-05-15T02:35:47.302Z,64.06
2023-05-15T02:38:17.291Z,64.38
2023-05-15T02:40:45.324Z,63.89
2023-05-15T02:43:13.349Z,62.43
2023-05-15T02:45:40.698Z,61.22
2023-05-15T02:48:07.743Z,62.37
2023-05-15T02:50:35.526Z,62.56
2023-05-15T02:53:02.744Z,62.96
2023-05-15T02:55:29.102Z,63.66
2023-05-15T02:57:55.660Z,63.96
2023-05-15T03:00:22.487Z,62.93
2023-05-15T03:02:49.100Z,63.77
2023-05-15T03:05:15.576Z,63.08
2023-05-15T03:07:43.253Z,61.94
2023-05-15T03:10:10.159Z,63.11
2023-05-15T03:12:36.705Z,63.82
2023-05-15T03:15:03.480Z,63.53
2023-05-15T03:17:29.874Z,63.79
2023-05-15T03:19:56.396Z,63.01
2023-05-15T03:22:22.812Z,63.23
2023-05-15T03:24:50.486Z,62.57
2023-05-15T03:27:16.888Z,63.28
2023-05-15T03:29:43.280Z,61.74
2023-05-15T03:32:09.867Z,61.37
2023-05-15T03:34:36.413Z,62.63
2023-05-15T03:37:02.872Z,62.58
2023-05-15T03:39:29.232Z,62.45
2023-05-15T03:41:56.944Z,64.81
2023-05-15T03:44:23.381Z,62.32
2023-05-15T03:46:49.805Z,63.13
2023-05-15T03:49:16.345Z,63.46
2023-05-15T03:51:42.805Z,63.08
2023-05-15T03:54:09.242Z,63.04
2023-05-15T03:56:35.643Z,62.42
2023-05-15T03:59:03.708Z,63.02
2023-05-15T04:01:30.114Z,63.59
2023-05-15T04:03:56.519Z,63.43
2023-05-15T04:06:22.957Z,63.75
2023-05-15T04:08:49.647Z,62.34
2023-05-15T04:11:16.247Z,61.95
2023-05-15T04:13:42.629Z,61.59
2023-05-15T04:16:10.320Z,61.22
2023-05-15T04:18:36.930Z,61.34
2023-05-15T04:21:03.526Z,62.24
2023-05-15T04:23:29.911Z,60.61
2023-05-15T04:25:56.354Z,62.09
2023-05-15T04:28:22.758Z,62.13
2023-05-15T04:30:49.102Z,60.96
2023-05-15T04:33:16.911Z,62.76
2023-05-15T04:35:43.397Z,61.24
2023-05-15T04:38:09.769Z,59.72
2023-05-15T04:40:36.149Z,59.74
2023-05-15T04:43:02.556Z,61.80
2023-05-15T04:45:29.024Z,60.56
2023-05-15T04:47:55.467Z,60.78
2023-05-15T04:50:23.314Z,60.60
2023-05-15T04:52:49.885Z,60.75
2023-05-15T04:55:16.663Z,60.25
2023-05-15T04:57:43.039Z,60.89
2023-05-15T05:00:10.797Z,62.68
2023-05-15T05:02:37.524Z,61.88
2023-05-15T05:05:05.157Z,61.93
2023-05-15T05:07:32.870Z,63.06
2023-05-15T05:09:59.280Z,60.99
2023-05-15T05:12:27.335Z,60.99
2023-05-15T05:14:54.496Z,60.82
2023-05-15T05:17:20.875Z,60.27
2023-05-15T05:19:47.241Z,60.03
2023-05-15T05:22:13.670Z,61.19
2023-05-15T05:24:41.356Z,60.27
2023-05-15T05:27:07.705Z,61.62
2023-05-15T05:29:34.143Z,61.51
2023-05-15T05:32:00.792Z,59.57
2023-05-15T05:34:27.236Z,59.69
2023-05-15T05:36:53.621Z,59.52
2023-05-15T05:39:21.085Z,59.61
2023-05-15T05:41:48.749Z,59.82
2023-05-15T05:44:15.274Z,61.60
2023-05-15T05:46:42.539Z,61.65
2023-05-15T05:49:08.930Z,62.14
2023-05-15T05:51:35.649Z,59.47
2023-05-15T05:54:02.079Z,59.09
2023-05-15T05:56:28.658Z,58.54
2023-05-15T05:58:56.424Z,59.27
2023-05-15T06:01:23.188Z,58.31
2023-05-15T06:03:49.681Z,61.28
2023-05-15T06:06:16.111Z,60.82
2023-05-15T06:08:42.519Z,59.65
2023-05-15T06:11:08.881Z,58.85
2023-05-15T06:13:35.280Z,59.47
2023-05-15T06:16:03.316Z,59.84
2023-05-15T06:18:29.848Z,58.46
2023-05-15T06:20:56.262Z,59.25
2023-05-15T06:23:24.397Z,57.72
2023-05-15T06:25:50.897Z,57.39
2023-05-15T06:28:17.291Z,56.64
2023-05-15T06:30:43.742Z,55.83
2023-05-15T06:33:11.459Z,55.68
2023-05-15T06:35:37.890Z,56.06
2023-05-15T06:38:04.287Z,54.48
2023-05-15T06:40:30.817Z,54.37
2023-05-15T06:42:57.200Z,56.57
2023-05-15T06:45:26.368Z,54.45
2023-05-15T06:47:53.032Z,55.30
2023-05-15T06:50:21.076Z,55.77
2023-05-15T06:52:47.659Z,56.08
2023-05-15T06:55:14.045Z,54.94
2023-05-15T06:57:40.437Z,53.36
2023-05-15T07:00:07.985Z,54.04
2023-05-15T07:02:34.399Z,52.47
2023-05-15T07:05:00.862Z,51.96
2023-05-15T07:07:28.838Z,50.09
2023-05-15T07:09:55.228Z,50.83
2023-05-15T07:12:21.573Z,50.90
2023-05-15T07:14:48.058Z,51.45
2023-05-15T07:17:14.479Z,50.61
2023-05-15T07:19:41.377Z,49.56
2023-05-15T07:22:07.911Z,49.49
2023-05-15T07:24:36.335Z,48.88
2023-05-15T07:27:03.868Z,48.86
2023-05-15T07:29:30.297Z,48.94
2023-05-15T07:31:56.813Z,48.35
2023-05-15T07:34:23.297Z,47.77
2023-05-15T07:36:49.864Z,48.92
2023-05-15T07:39:16.222Z,47.58
2023-05-15T07:41:43.977Z,47.87
2023-05-15T07:44:10.595Z,47.79
2023-05-15T07:46:37.031Z,46.45
2023-05-15T07:49:03.613Z,45.22
2023-05-15T07:51:30.039Z,46.07
2023-05-15T07:53:56.430Z,44.89
2023-05-15T07:56:23.265Z,45.33
2023-05-15T07:58:51.237Z,44.30
2023-05-15T08:01:17.648Z,44.69
2023-05-15T08:03:44.292Z,43.98
2023-05-15T08:06:10.899Z,45.19
2023-05-15T08:08:37.381Z,45.58
2023-05-15T08:11:03.829Z,44.55
2023-05-15T08:13:30.370Z,44.08
2023-05-15T08:15:58.145Z,44.17
2023-05-15T08:18:24.645Z,43.21
2023-05-15T08:20:51.050Z,43.52
2023-05-15T08:23:17.524Z,42.33
2023-05-15T08:25:43.992Z,42.11
2023-05-15T08:28:10.392Z,42.15
2023-05-15T08:30:37.016Z,42.08
2023-05-15T08:33:04.918Z,42.01
2023-05-15T08:35:31.515Z,41.83
2023-05-15T08:37:58.167Z,42.84
2023-05-15T08:40:38.424Z,42.32
2023-05-15T08:43:11.863Z,43.45
2023-05-15T08:45:38.520Z,43.51
2023-05-15T08:48:11.043Z,43.79
2023-05-15T08:50:38.832Z,42.17
2023-05-15T08:53:05.458Z,42.74
2023-05-15T08:55:32.177Z,42.13
2023-05-15T08:57:58.761Z,41.68
2023-05-15T09:00:25.799Z,41.31
2023-05-15T09:02:54.043Z,40.98
2023-05-15T09:05:21.845Z,40.97
2023-05-15T09:07:49.131Z,40.35
2023-05-15T09:10:16.255Z,40.48
2023-05-15T09:12:43.842Z,40.39
2023-05-15T09:15:12.209Z,32.28
2023-05-15T09:17:39.222Z,34.67
2023-05-15T09:20:06.786Z,34.42
2023-05-15T09:22:35.888Z,31.73
2023-05-15T09:25:04.394Z,34.82
2023-05-15T09:27:40.354Z,38.89
2023-05-15T09:30:10.096Z,38.69
2023-05-15T09:32:36.865Z,39.96
2023-05-15T09:35:03.530Z,40.03
2023-05-15T09:37:31.580Z,38.31
2023-05-15T09:40:08.867Z,38.27
2023-05-15T09:42:35.435Z,41.75
2023-05-15T09:45:03.025Z,39.65
2023-05-15T09:47:29.763Z,39.50
2023-05-15T09:49:56.280Z,40.27
2023-05-15T09:52:22.668Z,40.21
2023-05-15T09:54:50.614Z,42.86
2023-05-15T09:57:21.659Z,40.17
2023-05-15T09:59:48.976Z,39.67
2023-05-15T10:02:22.915Z,40.38
2023-05-15T10:04:54.620Z,39.71
2023-05-15T10:07:28.106Z,40.64
2023-05-15T10:09:54.415Z,39.64
2023-05-15T10:12:23.398Z,38.50
2023-05-15T10:14:51.329Z,38.89
2023-05-15T10:17:19.930Z,38.70
2023-05-15T10:19:57.805Z,38.95
2023-05-15T10:22:29.476Z,39.46
2023-05-15T10:25:00.800Z,38.14
2023-05-15T10:27:30.112Z,37.55
2023-05-15T10:29:58.394Z,38.13
2023-05-15T10:32:25.985Z,37.62
2023-05-15T10:34:53.948Z,36.52
2023-05-15T10:37:20.572Z,36.41
2023-05-15T10:39:47.774Z,37.56
2023-05-15T10:42:15.922Z,37.37
2023-05-15T10:44:43.666Z,36.03
2023-05-15T10:47:10.732Z,36.70
2023-05-15T10:49:37.384Z,35.60
2023-05-15T10:52:04.135Z,34.50
2023-05-15T10:54:30.560Z,34.42
2023-05-15T10:56:57.136Z,34.24
2023-05-15T10:59:33.000Z,33.92
2023-05-15T11:02:22.630Z,33.68
2023-05-15T11:04:54.420Z,34.75
2023-05-15T11:07:20.938Z,35.71
2023-05-15T11:09:47.533Z,34.40
2023-05-15T11:12:14.106Z,34.64
2023-05-15T11:14:42.256Z,35.17
2023-05-15T11:17:10.375Z,34.13
2023-05-15T11:19:54.692Z,34.53
2023-05-15T11:22:25.438Z,35.69
2023-05-15T11:24:54.577Z,35.57
2023-05-15T11:27:23.183Z,37.03
2023-05-15T11:30:10.297Z,36.70
2023-05-15T11:32:54.311Z,35.04
2023-05-15T11:35:24.497Z,35.27
2023-05-15T11:37:53.218Z,36.66
2023-05-15T11:40:21.552Z,34.99
2023-05-15T11:43:01.906Z,35.37
2023-05-15T11:45:30.525Z,36.04
2023-05-15T11:47:59.751Z,35.73
2023-05-15T11:50:28.026Z,35.54
2023-05-15T11:52:54.950Z,35.99
2023-05-15T11:55:22.155Z,34.85
2023-05-15T11:57:48.924Z,35.39
2023-05-15T12:00:15.828Z,33.20
2023-05-15T12:02:42.313Z,33.46
2023-05-15T12:05:09.947Z,33.65
2023-05-15T12:07:42.790Z,35.49
2023-05-15T12:10:10.755Z,34.39
2023-05-15T12:12:39.538Z,33.95
2023-05-15T12:15:09.388Z,35.57
2023-05-15T12:17:36.962Z,35.60
2023-05-15T12:20:04.209Z,36.14
2023-05-15T12:22:36.068Z,34.44
2023-05-15T12:25:05.046Z,34.51
2023-05-15T12:27:31.566Z,34.25
2023-05-15T12:29:58.418Z,34.17
2023-05-15T12:32:25.435Z,35.33
2023-05-15T12:34:52.086Z,34.04
2023-05-15T12:37:19.513Z,35.68
2023-05-15T12:39:53.802Z,36.68
2023-05-15T12:42:21.937Z,36.14
2023-05-15T12:44:51.058Z,36.08
2023-05-15T12:47:22.553Z,37.36
2023-05-15T12:49:51.696Z,37.78
2023-05-15T12:52:18.089Z,37.69
2023-05-15T12:54:44.498Z,37.55
2023-05-15T12:57:11.532Z,37.61
2023-05-15T12:59:40.420Z,36.75
2023-05-15T13:02:09.922Z,36.02
2023-05-15T13:04:36.419Z,36.95
2023-05-15T13:07:02.996Z,36.50
2023-05-15T13:09:29.378Z,35.87
2023-05-15T13:11:55.907Z,35.49
2023-05-15T13:14:23.101Z,35.43
2023-05-15T13:16:50.810Z,36.08
2023-05-15T13:19:17.330Z,35.74
2023-05-15T13:21:43.809Z,36.30
2023-05-15T13:24:10.203Z,35.76
2023-05-15T13:26:36.903Z,35.31
2023-05-15T13:29:03.298Z,35.61
2023-05-15T13:31:29.804Z,35.15
2023-05-15T13:33:57.512Z,34.90
2023-05-15T13:36:23.886Z,35.43
2023-05-15T13:38:50.345Z,35.02
2023-05-15T13:41:16.782Z,34.76
2023-05-15T13:43:43.199Z,35.14
2023-05-15T13:46:09.615Z,36.49
2023-05-15T13:48:35.998Z,38.64
2023-05-15T13:51:03.867Z,40.44
2023-05-15T13:53:30.318Z,39.78
2023-05-15T13:55:56.772Z,38.99
2023-05-15T13:58:23.186Z,39.82
2023-05-15T14:00:49.713Z,39.63
2023-05-15T14:03:16.264Z,38.26
2023-05-15T14:05:42.802Z,38.41
2023-05-15T14:08:10.596Z,38.58
2023-05-15T14:10:37.040Z,38.34
2023-05-15T14:13:03.429Z,39.34
2023-05-15T14:15:29.960Z,38.32
2023-05-15T14:17:56.451Z,38.09
2023-05-15T14:20:23.168Z,37.02
2023-05-15T14:22:49.684Z,37.59
2023-05-15T14:25:17.397Z,39.85
2023-05-15T14:27:43.900Z,40.30
2023-05-15T14:30:10.966Z,39.79
2023-05-15T14:32:37.411Z,39.84
2023-05-15T14:35:04.622Z,40.46
2023-05-15T14:37:31.060Z,41.04
2023-05-15T14:39:57.476Z,41.49
2023-05-15T14:42:25.739Z,40.95
2023-05-15T14:44:52.353Z,39.83
2023-05-15T14:47:18.726Z,40.82
2023-05-15T14:49:45.150Z,40.20
2023-05-15T14:52:11.723Z,40.31
2023-05-15T14:54:38.978Z,39.15
2023-05-15T14:57:06.213Z,39.08
2023-05-15T14:59:34.108Z,38.16
2023-05-15T15:02:00.772Z,37.37
2023-05-15T15:04:27.530Z,37.07
2023-05-15T15:06:53.913Z,36.91
2023-05-15T15:09:21.281Z,36.72
2023-05-15T15:11:48.179Z,36.37
2023-05-15T15:14:14.578Z,35.18
2023-05-15T15:16:42.556Z,34.56
2023-05-15T15:19:09.130Z,34.53
2023-05-15T15:21:35.751Z,34.83
2023-05-15T15:24:02.160Z,33.25
2023-05-15T15:26:29.282Z,33.34
2023-05-15T15:28:55.697Z,33.39
2023-05-15T15:31:22.084Z,33.47
2023-05-15T15:33:49.868Z,34.07
2023-05-15T15:36:16.350Z,34.10
2023-05-15T15:38:42.832Z,34.87
2023-05-15T15:41:09.322Z,35.38
2023-05-15T15:43:35.749Z,35.75
2023-05-15T15:46:02.157Z,36.23
2023-05-15T15:48:28.612Z,35.89
2023-05-15T15:50:56.552Z,38.00
2023-05-15T15:53:22.974Z,38.78
2023-05-15T15:55:49.437Z,38.45
2023-05-15T15:58:15.849Z,40.41
2023-05-15T16:00:42.277Z,42.03
2023-05-15T16:03:08.746Z,42.15
2023-05-15T16:05:35.205Z,43.04
2023-05-15T16:08:02.909Z,42.67
2023-05-15T16:10:29.470Z,43.47
2023-05-15T16:12:56.083Z,45.27
2023-05-15T16:15:25.279Z,46.36
2023-05-15T16:17:52.899Z,53.81
2023-05-15T16:20:20.124Z,55.99
2023-05-15T16:22:46.661Z,56.13
2023-05-15T16:25:14.393Z,55.64
2023-05-15T16:27:40.795Z,54.75
2023-05-15T16:30:08.309Z,58.08
2023-05-15T16:32:34.811Z,54.95
2023-05-15T16:35:01.208Z,51.66
2023-05-15T16:37:27.579Z,50.62
2023-05-15T16:39:53.974Z,48.78
2023-05-15T16:42:21.761Z,46.74
2023-05-15T16:44:48.146Z,46.66
2023-05-15T16:47:14.520Z,46.49
2023-05-15T16:49:43.277Z,45.80
2023-05-15T16:52:10.731Z,47.55
2023-05-15T16:54:37.157Z,47.24
2023-05-15T16:57:03.870Z,46.82
2023-05-15T16:59:31.594Z,45.44
2023-05-15T17:01:57.984Z,45.40
2023-05-15T17:04:24.529Z,47.18
2023-05-15T17:06:50.886Z,49.08
2023-05-15T17:09:17.270Z,50.76
2023-05-15T17:11:43.660Z,49.69
2023-05-15T17:14:10.024Z,51.16
2023-05-15T17:16:37.776Z,51.65
2023-05-15T17:19:04.231Z,51.44
2023-05-15T17:21:30.704Z,55.00
2023-05-15T17:23:57.039Z,54.47
2023-05-15T17:26:23.412Z,54.64
2023-05-15T17:28:49.780Z,53.98
2023-05-15T17:31:16.160Z,53.94
2023-05-15T17:33:43.888Z,53.88
2023-05-15T17:36:10.264Z,55.74
2023-05-15T17:38:36.640Z,56.75
2023-05-15T17:41:03.009Z,56.73
2023-05-15T17:43:29.434Z,55.37
2023-05-15T17:45:55.826Z,56.16
2023-05-15T17:48:22.321Z,56.59
2023-05-15T17:50:50.006Z,54.62
2023-05-15T17:53:16.330Z,54.20
2023-05-15T17:55:42.718Z,53.67
2023-05-15T17:58:09.110Z,53.32
2023-05-15T18:00:35.483Z,53.99
2023-05-15T18:03:02.161Z,54.52
2023-05-15T18:05:28.873Z,54.12
2023-05-15T18:07:56.755Z,54.03
2023-05-15T18:10:23.236Z,53.68
2023-05-15T18:12:49.631Z,54.11
2023-05-15T18:15:16.706Z,54.30
2023-05-15T18:17:43.140Z,53.93
2023-05-15T18:20:10.502Z,55.44
2023-05-15T18:22:36.869Z,55.05
2023-05-15T18:25:05.414Z,53.23
2023-05-15T18:27:31.862Z,50.68
2023-05-15T18:29:58.348Z,49.90
2023-05-15T18:32:24.728Z,50.55
2023-05-15T18:34:51.087Z,49.77
2023-05-15T18:37:17.482Z,49.26
2023-05-15T18:39:43.872Z,48.22
2023-05-15T18:42:11.656Z,47.61
2023-05-15T18:44:38.138Z,48.16
2023-05-15T18:47:04.988Z,49.04
2023-05-15T18:49:31.504Z,48.89
2023-05-15T18:51:57.932Z,49.04
2023-05-15T18:54:24.448Z,48.20
2023-05-15T18:56:50.892Z,49.19
2023-05-15T18:59:19.399Z,49.86
2023-05-15T19:01:45.906Z,49.58
2023-05-15T19:04:12.626Z,49.81
2023-05-15T19:06:39.276Z,50.73
2023-05-15T19:09:06.055Z,49.67
2023-05-15T19:11:32.967Z,50.66
2023-05-15T19:13:59.327Z,50.43
2023-05-15T19:16:27.103Z,51.38
2023-05-15T19:18:53.814Z,51.66
2023-05-15T19:21:20.567Z,51.61
2023-05-15T19:23:47.068Z,51.94
2023-05-15T19:26:13.446Z,52.45
2023-05-15T19:28:40.283Z,53.02
2023-05-15T19:31:11.759Z,52.96
2023-05-15T19:33:45.362Z,53.21
2023-05-15T19:36:12.412Z,53.73
2023-05-15T19:38:39.347Z,52.06
2023-05-15T19:41:05.982Z,54.18
2023-05-15T19:43:32.541Z,54.45
2023-05-15T19:45:58.937Z,53.85
2023-05-15T19:48:25.362Z,53.95
2023-05-15T19:50:53.243Z,54.20
2023-05-15T19:53:19.787Z,53.90
2023-05-15T19:55:46.887Z,55.08
2023-05-15T19:58:13.304Z,55.85
2023-05-15T20:00:40.057Z,55.02
2023-05-15T20:03:06.550Z,55.76
2023-05-15T20:05:33.025Z,57.37
2023-05-15T20:08:00.715Z,59.08
2023-05-15T20:10:27.293Z,59.88
2023-05-15T20:12:54.164Z,58.06
2023-05-15T20:15:22.129Z,57.67
2023-05-15T20:17:48.564Z,58.64
2023-05-15T20:20:14.963Z,57.85
2023-05-15T20:22:43.674Z,57.91
2023-05-15T20:25:11.588Z,57.72
2023-05-15T20:27:38.282Z,57.94
2023-05-15T20:30:06.692Z,59.35
2023-05-15T20:32:33.487Z,58.28
2023-05-15T20:35:00.201Z,60.26
2023-05-15T20:37:26.682Z,60.29
2023-05-15T20:39:53.575Z,61.78
2023-05-15T20:42:21.604Z,60.78
2023-05-15T20:44:48.101Z,62.32
2023-05-15T20:47:14.532Z,61.01
2023-05-15T20:49:40.925Z,61.58
2023-05-15T20:52:07.282Z,63.66
2023-05-15T20:54:33.739Z,63.23
2023-05-15T20:57:00.178Z,63.88
2023-05-15T20:59:27.910Z,65.45
2023-05-15T21:01:54.315Z,65.78
2023-05-15T21:04:20.709Z,66.70
2023-05-15T21:06:47.714Z,65.92
2023-05-15T21:09:14.702Z,67.40
2023-05-15T21:11:41.112Z,66.38
2023-05-15T21:14:07.485Z,66.16
2023-05-15T21:16:35.191Z,66.89
2023-05-15T21:19:01.903Z,66.60
2023-05-15T21:21:28.306Z,66.76
2023-05-15T21:23:54.678Z,67.78
2023-05-15T21:26:21.039Z,66.41
2023-05-15T21:28:47.412Z,65.60
2023-05-15T21:31:13.801Z,66.59
2023-05-15T21:33:41.526Z,66.18
2023-05-15T21:36:08.249Z,65.86
2023-05-15T21:38:34.687Z,66.40
2023-05-15T21:41:01.134Z,66.81
2023-05-15T21:43:27.559Z,67.56
2023-05-15T21:45:54.322Z,65.87
2023-05-15T21:48:20.708Z,64.95
2023-05-15T21:50:48.503Z,64.12
2023-05-15T21:53:14.895Z,65.06
2023-05-15T21:55:41.287Z,66.14
2023-05-15T21:58:07.664Z,66.59
2023-05-15T22:00:34.017Z,65.73
2023-05-15T22:03:00.577Z,64.49
2023-05-15T22:05:27.043Z,64.81
2023-05-15T22:07:54.708Z,66.25
2023-05-15T22:10:21.199Z,63.96
2023-05-15T22:12:47.742Z,63.23
2023-05-15T22:15:14.105Z,63.88
2023-05-15T22:17:40.686Z,62.43
2023-05-15T22:20:08.429Z,63.29
2023-05-15T22:22:35.733Z,63.84
2023-05-15T22:25:04.220Z,63.48
2023-05-15T22:27:30.677Z,63.16
2023-05-15T22:29:57.112Z,61.61
2023-05-15T22:32:23.676Z,61.51
2023-05-15T22:34:50.336Z,65.23
2023-05-15T22:37:16.713Z,65.39
2023-05-15T22:39:43.100Z,62.99
2023-05-15T22:42:10.862Z,63.98
2023-05-15T22:44:37.252Z,64.63
2023-05-15T22:47:03.950Z,63.48
2023-05-15T22:49:30.302Z,64.76
2023-05-15T22:51:58.069Z,64.70
2023-05-15T22:54:24.559Z,65.31
2023-05-15T22:56:51.823Z,64.14
2023-05-15T22:59:19.713Z,64.95
2023-05-15T23:01:46.887Z,64.42
2023-05-15T23:04:13.608Z,65.50
2023-05-15T23:06:40.168Z,65.21
2023-05-15T23:09:07.106Z,66.30
2023-05-15T23:11:33.698Z,66.99
2023-05-15T23:14:00.216Z,67.58
2023-05-15T23:16:27.989Z,64.69
2023-05-15T23:18:56.134Z,63.60
2023-05-15T23:21:22.613Z,65.41
2023-05-15T23:23:49.236Z,68.64
2023-05-15T23:26:15.588Z,66.03
2023-05-15T23:28:42.037Z,65.97
2023-05-15T23:31:08.626Z,65.74
2023-05-15T23:33:36.436Z,65.47
2023-05-15T23:36:02.804Z,67.46
2023-05-15T23:38:29.165Z,66.36
2023-05-15T23:40:55.533Z,66.57
2023-05-15T23:43:21.907Z,63.93
2023-05-15T23:45:48.325Z,64.27
2023-05-15T23:48:14.945Z,67.61
2023-05-15T23:50:42.640Z,66.39
2023-05-15T23:53:09.123Z,64.88
2023-05-15T23:55:35.493Z,64.23
2023-05-15T23:58:02.030Z,68.38
